createdAt,value
2018-06-23T00:01:51.197Z,102488.05
2018-06-23T00:04:20.622Z,102493.43
2018-06-23T00:06:50.138Z,102490.33
2018-06-23T00:09:19.706Z,102500.41
2018-06-23T00:11:49.194Z,102499.88
2018-06-23T00:14:18.584Z,102499.71
2018-06-23T00:16:48.161Z,102494.79
2018-06-23T00:19:17.830Z,102495.99
2018-06-23T00:21:47.248Z,102497.39
2018-06-23T00:24:16.774Z,102500.80
2018-06-23T00:26:46.227Z,102506.92
2018-06-23T00:29:15.753Z,102510.39
2018-06-23T00:31:45.336Z,102507.22
2018-06-23T00:34:14.737Z,102510.84
2018-06-23T00:36:44.176Z,102502.27
2018-06-23T00:39:13.736Z,102508.79
2018-06-23T00:41:43.160Z,102504.20
2018-06-23T00:44:12.641Z,102509.16
2018-06-23T00:46:42.206Z,102505.86
2018-06-23T00:49:11.605Z,102506.02
2018-06-23T00:51:41.011Z,102506.03
2018-06-23T00:54:10.432Z,102500.67
2018-06-23T00:56:39.949Z,102497.03
2018-06-23T00:59:26.345Z,102502.31
2018-06-23T01:01:55.797Z,102497.55
2018-06-23T01:04:25.224Z,102508.69
2018-06-23T01:06:54.766Z,102508.04
2018-06-23T01:09:24.314Z,102508.91
2018-06-23T01:11:53.770Z,102503.88
2018-06-23T01:14:23.167Z,102504.05
2018-06-23T01:16:52.638Z,102504.44
2018-06-23T01:19:22.109Z,102509.05
2018-06-23T01:21:51.518Z,102511.28
2018-06-23T01:24:20.982Z,102504.75
2018-06-23T01:26:50.568Z,102505.63
2018-06-23T01:29:20.008Z,102503.01
2018-06-23T01:31:49.426Z,102499.02
2018-06-23T01:34:19.477Z,102506.98
2018-06-23T01:36:49.822Z,102499.63
2018-06-23T01:39:19.282Z,102502.34
2018-06-23T01:41:48.702Z,102504.83
2018-06-23T01:44:18.103Z,102505.91
2018-06-23T01:46:47.700Z,102506.89
2018-06-23T01:49:17.135Z,102502.43
2018-06-23T01:51:46.522Z,102506.27
2018-06-23T01:54:16.324Z,102501.06
2018-06-23T01:56:45.818Z,102499.69
2018-06-23T01:59:15.273Z,102508.39
2018-06-23T02:01:44.704Z,102501.84
2018-06-23T02:04:14.318Z,102501.31
2018-06-23T02:06:43.937Z,102493.38
2018-06-23T02:09:13.371Z,102491.31
2018-06-23T02:11:42.838Z,102494.23
2018-06-23T02:14:17.504Z,102494.44
2018-06-23T02:16:52.186Z,102487.17
2018-06-23T02:19:26.755Z,102490.20
2018-06-23T02:22:01.189Z,102488.98
2018-06-23T02:24:35.901Z,102492.41
2018-06-23T02:27:10.637Z,102482.22
2018-06-23T02:29:45.275Z,102481.59
2018-06-23T02:32:19.941Z,102489.70
2018-06-23T02:34:54.635Z,102486.99
2018-06-23T02:37:24.092Z,102489.68
2018-06-23T02:39:53.535Z,102488.94
2018-06-23T02:42:23.220Z,102496.66
2018-06-23T02:44:52.651Z,102487.11
2018-06-23T02:47:22.073Z,102490.13
2018-06-23T02:49:55.524Z,102487.58
2018-06-23T02:52:24.967Z,102492.25
2018-06-23T02:54:54.726Z,102492.25
2018-06-23T02:57:24.243Z,102493.71
2018-06-23T02:59:53.779Z,102486.36
2018-06-23T03:02:23.422Z,102493.80
2018-06-23T03:04:52.836Z,102493.41
2018-06-23T03:07:22.376Z,102495.75
2018-06-23T03:09:51.843Z,102498.58
2018-06-23T03:12:21.257Z,102493.48
2018-06-23T03:14:50.770Z,102500.52
2018-06-23T03:17:20.543Z,102492.09
2018-06-23T03:19:52.011Z,102500.88
2018-06-23T03:22:21.457Z,102488.75
2018-06-23T03:24:50.847Z,102495.11
2018-06-23T03:27:20.351Z,102501.40
2018-06-23T03:29:49.859Z,102499.70
2018-06-23T03:32:19.290Z,102496.34
2018-06-23T03:34:48.676Z,102501.92
2018-06-23T03:37:18.187Z,102501.09
2018-06-23T03:39:47.662Z,102503.31
2018-06-23T03:42:17.099Z,102504.23
2018-06-23T03:44:46.591Z,102507.09
2018-06-23T03:47:16.032Z,102507.28
2018-06-23T03:49:45.436Z,102507.24
2018-06-23T03:52:14.570Z,102500.64
2018-06-23T03:54:44.106Z,102498.61
2018-06-23T03:57:13.537Z,102501.52
2018-06-23T03:59:42.958Z,102498.34
2018-06-23T04:02:12.422Z,102499.69
2018-06-23T04:04:41.907Z,102495.98
2018-06-23T04:07:11.345Z,102498.77
2018-06-23T04:09:40.771Z,102491.91
2018-06-23T04:12:10.285Z,102488.06
2018-06-23T04:14:39.861Z,102487.80
2018-06-23T04:17:09.388Z,102482.65
2018-06-23T04:19:38.827Z,102495.66
2018-06-23T04:22:10.095Z,102499.55
2018-06-23T04:24:42.449Z,102492.39
2018-06-23T04:27:12.555Z,102491.21
2018-06-23T04:29:43.125Z,102489.38
2018-06-23T04:32:13.526Z,102494.48
2018-06-23T04:34:42.985Z,102502.66
2018-06-23T04:37:12.439Z,102505.77
2018-06-23T04:39:42.002Z,102504.84
2018-06-23T04:42:11.470Z,102506.55
2018-06-23T04:44:41.296Z,102505.98
2018-06-23T04:47:11.589Z,102505.19
2018-06-23T04:49:41.342Z,102494.84
2018-06-23T04:52:10.732Z,102495.87
2018-06-23T04:54:42.362Z,102494.31
2018-06-23T04:57:11.787Z,102493.94
2018-06-23T04:59:41.221Z,102490.73
2018-06-23T05:02:12.906Z,102491.00
2018-06-23T05:04:42.415Z,102504.02
2018-06-23T05:07:14.792Z,102505.66
2018-06-23T05:09:44.295Z,102498.75
2018-06-23T05:12:13.723Z,102500.20
2018-06-23T05:14:43.200Z,102503.98
2018-06-23T05:17:12.788Z,102499.33
2018-06-23T05:19:42.374Z,102501.70
2018-06-23T05:22:11.888Z,102501.69
2018-06-23T05:24:41.305Z,102508.69
2018-06-23T05:27:10.782Z,102504.81
2018-06-23T05:29:40.179Z,102508.54
2018-06-23T05:32:09.708Z,102497.42
2018-06-23T05:34:39.119Z,102496.23
2018-06-23T05:37:09.839Z,102499.56
2018-06-23T05:39:39.784Z,102504.61
2018-06-23T05:42:09.265Z,102505.44
2018-06-23T05:44:38.670Z,102502.22
2018-06-23T05:47:08.266Z,102500.68
2018-06-23T05:49:37.913Z,102504.15
2018-06-23T05:52:07.350Z,102499.58
2018-06-23T05:54:36.813Z,102497.33
2018-06-23T05:57:06.637Z,102494.01
2018-06-23T05:59:36.163Z,102497.23
2018-06-23T06:02:07.000Z,102502.94
2018-06-23T06:04:37.880Z,102506.39
2018-06-23T06:07:07.431Z,102503.63
2018-06-23T06:09:37.348Z,102503.48
2018-06-23T06:12:06.986Z,102502.45
2018-06-23T06:14:39.579Z,102503.88
2018-06-23T06:17:36.709Z,102503.49
2018-06-23T06:20:12.726Z,102508.67
2018-06-23T06:22:44.475Z,102499.89
2018-06-23T06:25:14.402Z,102499.05
2018-06-23T06:27:43.818Z,102496.30
2018-06-23T06:30:13.434Z,102496.91
2018-06-23T06:32:42.962Z,102498.08
2018-06-23T06:35:12.418Z,102501.00
2018-06-23T06:37:42.937Z,102491.97
2018-06-23T06:40:12.467Z,102494.19
2018-06-23T06:42:42.207Z,102494.18
2018-06-23T06:45:11.649Z,102498.38
2018-06-23T06:47:41.083Z,102504.41
2018-06-23T06:50:10.649Z,102506.64
2018-06-23T06:52:40.261Z,102504.31
2018-06-23T06:55:12.655Z,102495.77
2018-06-23T06:57:44.518Z,102495.73
2018-06-23T07:00:15.266Z,102499.16
2018-06-23T07:02:44.724Z,102488.27
2018-06-23T07:05:14.200Z,102492.69
2018-06-23T07:07:43.823Z,102497.22
2018-06-23T07:10:13.338Z,102503.02
2018-06-23T07:12:42.745Z,102505.84
2018-06-23T07:15:15.412Z,102506.81
2018-06-23T07:17:45.267Z,102514.63
2018-06-23T07:20:15.397Z,102511.20
2018-06-23T07:22:44.997Z,102514.23
2018-06-23T07:25:14.583Z,102503.52
2018-06-23T07:27:44.286Z,102510.80
2018-06-23T07:30:17.065Z,102512.66
2018-06-23T07:32:46.545Z,102506.70
2018-06-23T07:35:16.217Z,102511.02
2018-06-23T07:37:45.589Z,102508.12
2018-06-23T07:40:15.060Z,102508.22
2018-06-23T07:42:44.482Z,102510.41
2018-06-23T07:45:14.014Z,102512.56
2018-06-23T07:47:43.412Z,102506.19
2018-06-23T07:50:12.875Z,102494.31
2018-06-23T07:52:42.293Z,102495.03
2018-06-23T07:55:11.840Z,102484.59
2018-06-23T07:57:41.515Z,102479.83
2018-06-23T08:00:10.939Z,102485.63
2018-06-23T08:02:40.358Z,102482.91
2018-06-23T08:05:09.968Z,102483.78
2018-06-23T08:07:39.489Z,102482.33
2018-06-23T08:10:08.991Z,102481.79
2018-06-23T08:12:38.543Z,102482.36
2018-06-23T08:15:08.135Z,102479.91
2018-06-23T08:17:37.624Z,102477.91
2018-06-23T08:20:07.196Z,102477.94
2018-06-23T08:22:36.666Z,102460.73
2018-06-23T08:25:06.471Z,102466.71
2018-06-23T08:27:35.882Z,102460.50
2018-06-23T08:30:05.761Z,102466.98
2018-06-23T08:32:35.322Z,102461.53
2018-06-23T08:35:05.065Z,102463.19
2018-06-23T08:37:34.575Z,102470.14
2018-06-23T08:40:04.045Z,102484.69
2018-06-23T08:42:33.711Z,102481.30
2018-06-23T08:45:03.279Z,102481.28
2018-06-23T08:47:32.777Z,102479.80
2018-06-23T08:50:02.227Z,102485.67
2018-06-23T08:52:32.018Z,102491.73
2018-06-23T08:55:01.485Z,102482.45
2018-06-23T08:57:30.941Z,102486.37
2018-06-23T09:00:00.484Z,102486.36
2018-06-23T09:02:30.126Z,102483.63
2018-06-23T09:04:59.657Z,102486.16
2018-06-23T09:07:29.092Z,102481.12
2018-06-23T09:09:58.769Z,102481.98
2018-06-23T09:12:28.462Z,102482.06
2018-06-23T09:14:57.979Z,102477.97
2018-06-23T09:17:28.449Z,102482.33
2018-06-23T09:19:58.024Z,102477.33
2018-06-23T09:22:27.550Z,102481.88
2018-06-23T09:24:56.999Z,102476.04
2018-06-23T09:27:26.502Z,102471.83
2018-06-23T09:29:56.109Z,102477.95
2018-06-23T09:32:25.674Z,102481.33
2018-06-23T09:34:55.119Z,102479.31
2018-06-23T09:37:24.627Z,102483.80
2018-06-23T09:39:55.252Z,102482.98
2018-06-23T09:42:24.914Z,102471.42
2018-06-23T09:44:54.402Z,102482.61
2018-06-23T09:47:23.857Z,102478.02
2018-06-23T09:49:53.387Z,102480.44
2018-06-23T09:52:22.877Z,102473.67
2018-06-23T09:54:52.376Z,102484.06
2018-06-23T09:57:21.571Z,102482.93
2018-06-23T09:59:51.176Z,102488.06
2018-06-23T10:02:20.777Z,102482.41
2018-06-23T10:04:50.157Z,102484.64
2018-06-23T10:07:19.800Z,102488.63
2018-06-23T10:09:49.284Z,102490.48
2018-06-23T10:12:18.760Z,102481.33
2018-06-23T10:14:48.234Z,102479.62
2018-06-23T10:17:17.787Z,102477.33
2018-06-23T10:19:47.484Z,102482.73
2018-06-23T10:22:17.102Z,102482.60
2018-06-23T10:24:46.608Z,102482.80
2018-06-23T10:27:16.298Z,102494.06
2018-06-23T10:29:45.808Z,102495.42
2018-06-23T10:32:15.275Z,102490.09
2018-06-23T10:34:44.774Z,102485.41
2018-06-23T10:37:14.352Z,102493.27
2018-06-23T10:39:43.808Z,102495.23
2018-06-23T10:42:13.788Z,102490.87
2018-06-23T10:44:43.300Z,102486.78
2018-06-23T10:47:12.959Z,102493.30
2018-06-23T10:49:42.414Z,102489.98
2018-06-23T10:52:11.903Z,102491.08
2018-06-23T10:54:41.447Z,102499.16
2018-06-23T10:57:11.156Z,102497.98
2018-06-23T10:59:41.062Z,102508.05
2018-06-23T11:02:10.577Z,102500.36
2018-06-23T11:04:40.187Z,102502.36
2018-06-23T11:07:09.730Z,102495.77
2018-06-23T11:09:39.798Z,102503.95
2018-06-23T11:12:09.228Z,102501.20
2018-06-23T11:14:38.686Z,102497.83
2018-06-23T11:17:08.582Z,102503.73
2018-06-23T11:19:38.174Z,102500.69
2018-06-23T11:22:07.638Z,102493.93
2018-06-23T11:24:37.381Z,102506.50
2018-06-23T11:27:07.141Z,102500.98
2018-06-23T11:29:36.796Z,102508.03
2018-06-23T11:32:08.079Z,102504.98
2018-06-23T11:34:37.549Z,102508.05
2018-06-23T11:37:07.082Z,102505.59
2018-06-23T11:39:36.625Z,102502.34
2018-06-23T11:42:06.269Z,102508.92
2018-06-23T11:44:35.829Z,102501.63
2018-06-23T11:47:05.811Z,102497.86
2018-06-23T11:49:35.304Z,102502.13
2018-06-23T11:52:06.607Z,102510.97
2018-06-23T11:54:36.085Z,102497.02
2018-06-23T11:57:05.710Z,102497.58
2018-06-23T11:59:35.401Z,102501.66
2018-06-23T12:02:04.946Z,102502.75
2018-06-23T12:04:34.649Z,102497.01
2018-06-23T12:07:04.187Z,102502.45
2018-06-23T12:09:33.876Z,102495.60
2018-06-23T12:12:03.449Z,102490.72
2018-06-23T12:14:33.099Z,102487.98
2018-06-23T12:17:02.711Z,102485.34
2018-06-23T12:19:32.021Z,102481.66
2018-06-23T12:22:01.535Z,102484.08
2018-06-23T12:24:31.156Z,102480.44
2018-06-23T12:27:00.696Z,102482.89
2018-06-23T12:29:30.265Z,102484.33
2018-06-23T12:31:59.729Z,102482.31
2018-06-23T12:34:29.287Z,102477.70
2018-06-23T12:36:58.653Z,102474.94
2018-06-23T12:39:28.163Z,102467.98
2018-06-23T12:41:57.767Z,102469.38
2018-06-23T12:44:26.967Z,102464.77
2018-06-23T12:46:56.633Z,102461.15
2018-06-23T12:49:26.106Z,102454.16
2018-06-23T12:51:55.546Z,102455.80
2018-06-23T12:54:25.052Z,102447.19
2018-06-23T12:56:54.685Z,102441.55
2018-06-23T12:59:24.171Z,102444.40
2018-06-23T13:01:53.860Z,102442.50
2018-06-23T13:04:23.340Z,102445.97
2018-06-23T13:06:52.808Z,102432.27
2018-06-23T13:09:22.366Z,102430.22
2018-06-23T13:11:51.878Z,102426.97
2018-06-23T13:14:21.514Z,102428.98
2018-06-23T13:16:51.073Z,102415.00
2018-06-23T13:19:20.638Z,102409.47
2018-06-23T13:21:50.133Z,102412.77
2018-06-23T13:24:19.628Z,102409.28
2018-06-23T13:26:49.060Z,102412.23
2018-06-23T13:29:18.535Z,102407.13
2018-06-23T13:31:48.029Z,102401.50
2018-06-23T13:34:17.602Z,102393.09
2018-06-23T13:36:47.069Z,102389.91
2018-06-23T13:39:16.532Z,102389.91
2018-06-23T13:41:46.049Z,102395.17
2018-06-23T13:44:15.469Z,102392.46
2018-06-23T13:46:44.900Z,102379.85
2018-06-23T13:49:14.445Z,102383.14
2018-06-23T13:51:44.014Z,102376.41
2018-06-23T13:54:13.569Z,102375.37
2018-06-23T13:56:43.094Z,102365.53
2018-06-23T13:59:12.563Z,102368.84
2018-06-23T14:01:41.794Z,102364.50
2018-06-23T14:04:11.295Z,102362.99
2018-06-23T14:06:40.758Z,102366.04
2018-06-23T14:09:12.622Z,102360.61
2018-06-23T14:11:42.052Z,102355.59
2018-06-23T14:14:11.733Z,102354.10
2018-06-23T14:16:41.196Z,102344.39
2018-06-23T14:19:10.698Z,102345.48
2018-06-23T14:21:40.295Z,102342.25
2018-06-23T14:24:09.762Z,102337.75
2018-06-23T14:26:39.273Z,102337.39
2018-06-23T14:29:08.829Z,102332.02
2018-06-23T14:31:38.590Z,102328.28
2018-06-23T14:34:08.092Z,102331.63
2018-06-23T14:36:37.531Z,102329.00
2018-06-23T14:39:10.587Z,102322.36
2018-06-23T14:41:40.016Z,102325.72
2018-06-23T14:44:09.783Z,102311.87
2018-06-23T14:46:39.297Z,102305.55
2018-06-23T14:49:08.854Z,102308.58
2018-06-23T14:51:38.318Z,102300.30
2018-06-23T14:54:07.979Z,102310.10
2018-06-23T14:56:37.496Z,102310.75
2018-06-23T14:59:06.959Z,102307.31
2018-06-23T15:01:36.425Z,102309.05
2018-06-23T15:04:05.995Z,102303.09
2018-06-23T15:06:35.476Z,102298.04
2018-06-23T15:09:21.811Z,102292.45
2018-06-23T15:12:08.169Z,102296.20
2018-06-23T15:14:37.393Z,102290.03
2018-06-23T15:17:06.846Z,102281.94
2018-06-23T15:19:36.430Z,102288.64
2018-06-23T15:22:06.082Z,102284.66
2018-06-23T15:24:35.487Z,102287.98
2018-06-23T15:27:05.198Z,102282.39
2018-06-23T15:29:34.717Z,102284.94
2018-06-23T15:32:04.226Z,102290.18
2018-06-23T15:34:33.636Z,102284.17
2018-06-23T15:37:03.198Z,102286.92
2018-06-23T15:39:32.716Z,102275.54
2018-06-23T15:42:02.154Z,102279.86
2018-06-23T15:44:31.589Z,102272.55
2018-06-23T15:47:01.108Z,102280.56
2018-06-23T15:49:30.565Z,102272.00
2018-06-23T15:51:59.987Z,102270.73
2018-06-23T15:54:29.495Z,102264.70
2018-06-23T15:56:59.001Z,102269.73
2018-06-23T15:59:28.431Z,102263.60
2018-06-23T16:01:57.883Z,102269.63
2018-06-23T16:04:27.402Z,102261.74
2018-06-23T16:06:56.892Z,102263.50
2018-06-23T16:09:26.476Z,102256.25
2018-06-23T16:11:55.902Z,102255.11
2018-06-23T16:14:25.188Z,102254.27
2018-06-23T16:16:54.646Z,102257.43
2018-06-23T16:19:24.100Z,102250.65
2018-06-23T16:21:53.647Z,102249.70
2018-06-23T16:24:23.056Z,102245.96
2018-06-23T16:26:52.488Z,102243.98
2018-06-23T16:29:22.042Z,102239.53
2018-06-23T16:31:51.564Z,102243.42
2018-06-23T16:34:21.034Z,102242.65
2018-06-23T16:36:50.446Z,102242.59
2018-06-23T16:39:19.848Z,102249.19
2018-06-23T16:41:49.486Z,102244.81
2018-06-23T16:44:18.977Z,102241.52
2018-06-23T16:46:48.391Z,102245.38
2018-06-23T16:49:17.959Z,102241.23
2018-06-23T16:51:47.406Z,102242.16
2018-06-23T16:54:16.897Z,102232.82
2018-06-23T16:56:46.420Z,102226.86
2018-06-23T16:59:15.974Z,102232.02
2018-06-23T17:01:45.535Z,102226.98
2018-06-23T17:04:15.041Z,102230.09
2018-06-23T17:06:44.557Z,102227.89
2018-06-23T17:09:14.045Z,102224.79
2018-06-23T17:11:46.039Z,102215.66
2018-06-23T17:14:19.363Z,102216.20
2018-06-23T17:16:50.039Z,102213.52
2018-06-23T17:19:20.759Z,102210.00
2018-06-23T17:21:50.227Z,102207.23
2018-06-23T17:24:21.158Z,102207.59
2018-06-23T17:26:51.795Z,102200.88
2018-06-23T17:29:22.321Z,102207.34
2018-06-23T17:31:51.818Z,102201.54
2018-06-23T17:34:22.321Z,102198.86
2018-06-23T17:36:53.263Z,102193.48
2018-06-23T17:39:23.926Z,102193.16
2018-06-23T17:41:53.749Z,102194.51
2018-06-23T17:44:24.731Z,102190.55
2018-06-23T17:46:55.425Z,102182.89
2018-06-23T17:49:26.092Z,102184.47
2018-06-23T17:51:56.680Z,102176.88
2018-06-23T17:54:27.661Z,102184.31
2018-06-23T17:56:58.859Z,102179.97
2018-06-23T17:59:30.137Z,102186.18
2018-06-23T18:02:00.561Z,102187.36
2018-06-23T18:04:30.936Z,102185.20
2018-06-23T18:07:01.646Z,102184.88
2018-06-23T18:09:32.339Z,102187.01
2018-06-23T18:12:03.185Z,102181.45
2018-06-23T18:14:34.095Z,102189.83
2018-06-23T18:17:04.888Z,102186.46
2018-06-23T18:19:36.889Z,102185.13
2018-06-23T18:22:06.598Z,102178.59
2018-06-23T18:24:36.395Z,102175.52
2018-06-23T18:27:05.838Z,102179.64
2018-06-23T18:29:35.287Z,102170.83
2018-06-23T18:32:04.851Z,102176.19
2018-06-23T18:34:34.283Z,102177.67
2018-06-23T18:37:03.694Z,102176.69
2018-06-23T18:39:33.217Z,102183.04
2018-06-23T18:42:02.672Z,102180.21
2018-06-23T18:44:32.075Z,102180.89
2018-06-23T18:47:01.491Z,102176.11
2018-06-23T18:49:30.935Z,102177.75
2018-06-23T18:52:00.397Z,102175.44
2018-06-23T18:54:29.855Z,102177.08
2018-06-23T18:56:59.431Z,102175.86
2018-06-23T18:59:28.975Z,102174.27
2018-06-23T19:01:58.381Z,102175.77
2018-06-23T19:04:27.789Z,102175.98
2018-06-23T19:06:57.298Z,102177.09
2018-06-23T19:09:26.933Z,102165.94
2018-06-23T19:11:56.301Z,102168.05
2018-06-23T19:14:25.723Z,102165.53
2018-06-23T19:16:55.214Z,102159.97
2018-06-23T19:19:24.707Z,102163.33
2018-06-23T19:21:54.130Z,102162.82
2018-06-23T19:24:23.564Z,102162.59
2018-06-23T19:26:53.072Z,102161.12
2018-06-23T19:29:22.542Z,102162.84
2018-06-23T19:31:51.963Z,102162.95
2018-06-23T19:34:21.498Z,102165.20
2018-06-23T19:36:51.037Z,102164.20
2018-06-23T19:39:20.433Z,102162.47
2018-06-23T19:41:49.857Z,102166.92
2018-06-23T19:44:19.297Z,102165.45
2018-06-23T19:46:48.780Z,102166.30
2018-06-23T19:49:18.207Z,102169.16
2018-06-23T19:51:47.689Z,102163.19
2018-06-23T19:54:17.120Z,102169.52
2018-06-23T19:56:46.557Z,102169.27
2018-06-23T19:59:15.994Z,102170.83
2018-06-23T20:01:45.585Z,102172.81
2018-06-23T20:04:15.050Z,102172.05
2018-06-23T20:06:44.496Z,102173.94
2018-06-23T20:09:15.423Z,102171.59
2018-06-23T20:11:44.975Z,102173.05
2018-06-23T20:14:14.640Z,102170.04
2018-06-23T20:16:44.084Z,102167.55
2018-06-23T20:19:13.616Z,102174.28
2018-06-23T20:21:43.083Z,102171.28
2018-06-23T20:24:12.722Z,102175.41
2018-06-23T20:26:42.300Z,102180.99
2018-06-23T20:29:11.729Z,102184.37
2018-06-23T20:31:41.269Z,102179.72
2018-06-23T20:34:10.722Z,102181.80
2018-06-23T20:36:40.160Z,102173.77
2018-06-23T20:39:10.937Z,102178.36
2018-06-23T20:41:40.889Z,102174.20
2018-06-23T20:44:10.297Z,102172.80
2018-06-23T20:46:39.726Z,102173.98
2018-06-23T20:49:09.195Z,102174.03
2018-06-23T20:51:38.762Z,102173.95
2018-06-23T20:54:08.226Z,102171.93
2018-06-23T20:56:37.720Z,102173.45
2018-06-23T20:59:07.143Z,102169.81
2018-06-23T21:01:36.691Z,102172.02
2018-06-23T21:04:06.207Z,102171.27
2018-06-23T21:06:35.616Z,102170.48
2018-06-23T21:09:07.488Z,102169.41
2018-06-23T21:11:37.253Z,102172.38
2018-06-23T21:14:06.921Z,102175.08
2018-06-23T21:16:36.448Z,102170.65
2018-06-23T21:19:05.949Z,102172.88
2018-06-23T21:21:35.470Z,102172.39
2018-06-23T21:24:04.887Z,102162.22
2018-06-23T21:26:34.413Z,102165.77
2018-06-23T21:29:03.932Z,102170.06
2018-06-23T21:31:33.443Z,102172.02
2018-06-23T21:34:02.970Z,102174.78
2018-06-23T21:36:32.383Z,102173.22
2018-06-23T21:39:01.834Z,102170.77
2018-06-23T21:41:31.392Z,102173.16
2018-06-23T21:44:00.835Z,102171.97
2018-06-23T21:46:30.270Z,102167.05
2018-06-23T21:48:59.792Z,102166.89
2018-06-23T21:51:29.312Z,102167.05
2018-06-23T21:53:58.703Z,102165.52
2018-06-23T21:56:28.191Z,102173.16
2018-06-23T21:58:57.727Z,102164.61
2018-06-23T22:01:27.307Z,102169.61
2018-06-23T22:03:56.737Z,102166.09
2018-06-23T22:06:27.243Z,102165.52
2018-06-23T22:08:56.806Z,102171.67
2018-06-23T22:11:26.439Z,102172.45
2018-06-23T22:13:55.849Z,102160.59
2018-06-23T22:16:25.286Z,102164.84
2018-06-23T22:18:54.771Z,102163.73
2018-06-23T22:21:24.222Z,102154.25
2018-06-23T22:23:53.648Z,102156.09
2018-06-23T22:26:23.070Z,102156.36
2018-06-23T22:28:52.646Z,102160.06
2018-06-23T22:31:22.072Z,102153.64
2018-06-23T22:33:51.513Z,102156.98
2018-06-23T22:36:21.005Z,102155.43
2018-06-23T22:38:50.517Z,102156.47
2018-06-23T22:41:19.937Z,102159.71
2018-06-23T22:43:49.361Z,102153.37
2018-06-23T22:46:19.089Z,102151.82
2018-06-23T22:48:48.615Z,102145.88
2018-06-23T22:51:19.273Z,102149.41
2018-06-23T22:53:48.763Z,102144.77
2018-06-23T22:56:18.314Z,102142.53
2018-06-23T22:58:47.767Z,102146.37
2018-06-23T23:01:17.732Z,102139.69
2018-06-23T23:03:47.201Z,102135.85
2018-06-23T23:06:16.747Z,102136.72
2018-06-23T23:08:46.208Z,102137.45
2018-06-23T23:11:15.677Z,102129.70
2018-06-23T23:13:45.389Z,102125.91
2018-06-23T23:16:14.897Z,102127.47
2018-06-23T23:18:44.432Z,102122.83
2018-06-23T23:21:13.885Z,102123.26
2018-06-23T23:23:43.284Z,102122.51
2018-06-23T23:26:12.824Z,102124.77
2018-06-23T23:28:42.277Z,102124.69
2018-06-23T23:31:11.791Z,102119.12
2018-06-23T23:33:41.774Z,102121.14
2018-06-23T23:36:11.553Z,102117.55
2018-06-23T23:38:42.809Z,102112.54
2018-06-23T23:41:12.501Z,102115.27
2018-06-23T23:43:41.941Z,102112.19
2018-06-23T23:46:11.481Z,102116.74
2018-06-23T23:48:40.951Z,102117.81
2018-06-23T23:51:10.388Z,102113.04
2018-06-23T23:53:39.807Z,102113.46
2018-06-23T23:56:09.535Z,102108.14
2018-06-23T23:58:38.990Z,102110.73
